sensor_id;sensor_type;location;lat;lon;timestamp;temperature;humidity
75931;DHT22;64609;47.052;15.462;2023-04-24T00:01:43;15.50;72.20
75931;DHT22;64609;47.052;15.462;2023-04-24T00:04:08;15.50;72.20
75931;DHT22;64609;47.052;15.462;2023-04-24T00:06:36;15.50;72.20
75931;DHT22;64609;47.052;15.462;2023-04-24T00:09:03;15.50;72.20
75931;DHT22;64609;47.052;15.462;2023-04-24T00:11:29;15.50;72.40
75931;DHT22;64609;47.052;15.462;2023-04-24T00:13:56;15.50;72.30
75931;DHT22;64609;47.052;15.462;2023-04-24T00:16:22;15.50;72.40
75931;DHT22;64609;47.052;15.462;2023-04-24T00:18:48;15.40;72.40
75931;DHT22;64609;47.052;15.462;2023-04-24T00:21:18;15.40;72.40
75931;DHT22;64609;47.052;15.462;2023-04-24T00:23:43;15.40;72.50
75931;DHT22;64609;47.052;15.462;2023-04-24T00:26:09;15.40;72.50
75931;DHT22;64609;47.052;15.462;2023-04-24T00:28:35;15.30;72.40
75931;DHT22;64609;47.052;15.462;2023-04-24T00:31:01;15.30;72.60
75931;DHT22;64609;47.052;15.462;2023-04-24T00:33:27;15.30;72.40
75931;DHT22;64609;47.052;15.462;2023-04-24T00:35:52;15.30;72.30
75931;DHT22;64609;47.052;15.462;2023-04-24T00:38:18;15.20;72.10
75931;DHT22;64609;47.052;15.462;2023-04-24T00:40:44;15.20;72.00
75931;DHT22;64609;47.052;15.462;2023-04-24T00:43:10;15.10;71.90
75931;DHT22;64609;47.052;15.462;2023-04-24T00:45:36;15.00;71.90
75931;DHT22;64609;47.052;15.462;2023-04-24T00:48:02;14.90;72.20
75931;DHT22;64609;47.052;15.462;2023-04-24T00:50:28;14.90;72.40
75931;DHT22;64609;47.052;15.462;2023-04-24T00:52:54;14.90;72.40
75931;DHT22;64609;47.052;15.462;2023-04-24T00:55:20;14.90;72.60
75931;DHT22;64609;47.052;15.462;2023-04-24T00:57:46;14.90;72.60
75931;DHT22;64609;47.052;15.462;2023-04-24T01:00:12;14.90;72.60
75931;DHT22;64609;47.052;15.462;2023-04-24T01:02:39;14.90;72.40
75931;DHT22;64609;47.052;15.462;2023-04-24T01:05:09;14.90;72.50
75931;DHT22;64609;47.052;15.462;2023-04-24T01:07:35;14.90;72.80
75931;DHT22;64609;47.052;15.462;2023-04-24T01:10:01;15.00;72.70
75931;DHT22;64609;47.052;15.462;2023-04-24T01:12:27;15.00;72.80
75931;DHT22;64609;47.052;15.462;2023-04-24T01:14:53;15.00;72.80
75931;DHT22;64609;47.052;15.462;2023-04-24T01:17:20;15.00;72.90
75931;DHT22;64609;47.052;15.462;2023-04-24T01:19:46;14.90;72.80
75931;DHT22;64609;47.052;15.462;2023-04-24T01:22:15;14.90;72.80
75931;DHT22;64609;47.052;15.462;2023-04-24T01:24:42;14.90;72.60
75931;DHT22;64609;47.052;15.462;2023-04-24T01:27:08;14.90;72.60
75931;DHT22;64609;47.052;15.462;2023-04-24T01:29:36;14.90;72.70
75931;DHT22;64609;47.052;15.462;2023-04-24T01:32:03;14.90;72.70
75931;DHT22;64609;47.052;15.462;2023-04-24T01:34:29;14.90;72.80
75931;DHT22;64609;47.052;15.462;2023-04-24T01:36:55;15.00;72.80
75931;DHT22;64609;47.052;15.462;2023-04-24T01:39:22;14.90;72.90
75931;DHT22;64609;47.052;15.462;2023-04-24T01:41:51;14.90;72.80
75931;DHT22;64609;47.052;15.462;2023-04-24T01:44:18;14.90;72.80
75931;DHT22;64609;47.052;15.462;2023-04-24T01:46:44;14.90;72.90
75931;DHT22;64609;47.052;15.462;2023-04-24T01:49:10;14.90;72.80
75931;DHT22;64609;47.052;15.462;2023-04-24T01:51:36;14.90;72.80
75931;DHT22;64609;47.052;15.462;2023-04-24T01:54:01;14.90;72.80
75931;DHT22;64609;47.052;15.462;2023-04-24T01:56:29;14.90;72.70
75931;DHT22;64609;47.052;15.462;2023-04-24T01:58:56;14.80;72.70
75931;DHT22;64609;47.052;15.462;2023-04-24T02:01:23;14.80;72.60
75931;DHT22;64609;47.052;15.462;2023-04-24T02:03:49;14.80;72.60
75931;DHT22;64609;47.052;15.462;2023-04-24T02:06:15;14.80;72.60
75931;DHT22;64609;47.052;15.462;2023-04-24T02:08:41;14.80;73.20
75931;DHT22;64609;47.052;15.462;2023-04-24T02:11:09;14.70;72.60
75931;DHT22;64609;47.052;15.462;2023-04-24T02:13:34;14.70;72.70
75931;DHT22;64609;47.052;15.462;2023-04-24T02:16:00;14.70;72.90
75931;DHT22;64609;47.052;15.462;2023-04-24T02:18:25;14.70;73.00
75931;DHT22;64609;47.052;15.462;2023-04-24T02:20:51;14.60;72.90
75931;DHT22;64609;47.052;15.462;2023-04-24T02:23:17;14.60;73.10
75931;DHT22;64609;47.052;15.462;2023-04-24T02:25:42;14.60;73.10
75931;DHT22;64609;47.052;15.462;2023-04-24T02:28:08;14.70;73.20
75931;DHT22;64609;47.052;15.462;2023-04-24T02:30:33;14.70;73.20
75931;DHT22;64609;47.052;15.462;2023-04-24T02:32:59;14.70;73.10
75931;DHT22;64609;47.052;15.462;2023-04-24T02:35:25;14.70;73.10
75931;DHT22;64609;47.052;15.462;2023-04-24T02:37:50;14.70;73.10
75931;DHT22;64609;47.052;15.462;2023-04-24T02:40:16;14.80;73.20
75931;DHT22;64609;47.052;15.462;2023-04-24T02:42:42;14.80;73.20
75931;DHT22;64609;47.052;15.462;2023-04-24T02:45:07;14.70;73.40
75931;DHT22;64609;47.052;15.462;2023-04-24T02:47:33;14.80;73.50
75931;DHT22;64609;47.052;15.462;2023-04-24T02:49:59;14.80;73.50
75931;DHT22;64609;47.052;15.462;2023-04-24T02:52:24;14.80;73.50
75931;DHT22;64609;47.052;15.462;2023-04-24T02:54:50;14.80;73.40
75931;DHT22;64609;47.052;15.462;2023-04-24T02:57:16;14.80;73.40
75931;DHT22;64609;47.052;15.462;2023-04-24T02:59:41;14.80;73.30
75931;DHT22;64609;47.052;15.462;2023-04-24T03:02:07;14.80;73.10
75931;DHT22;64609;47.052;15.462;2023-04-24T03:04:32;14.80;73.10
75931;DHT22;64609;47.052;15.462;2023-04-24T03:06:58;14.80;72.90
75931;DHT22;64609;47.052;15.462;2023-04-24T03:09:24;14.70;73.00
75931;DHT22;64609;47.052;15.462;2023-04-24T03:11:50;14.70;72.90
75931;DHT22;64609;47.052;15.462;2023-04-24T03:14:16;14.70;73.10
75931;DHT22;64609;47.052;15.462;2023-04-24T03:16:42;14.70;73.20
75931;DHT22;64609;47.052;15.462;2023-04-24T03:19:08;14.60;73.10
75931;DHT22;64609;47.052;15.462;2023-04-24T03:21:34;14.50;72.90
75931;DHT22;64609;47.052;15.462;2023-04-24T03:24:01;14.40;73.00
75931;DHT22;64609;47.052;15.462;2023-04-24T03:26:27;14.40;73.10
75931;DHT22;64609;47.052;15.462;2023-04-24T03:28:53;14.40;73.30
75931;DHT22;64609;47.052;15.462;2023-04-24T03:31:18;14.40;73.40
75931;DHT22;64609;47.052;15.462;2023-04-24T03:33:46;14.40;73.40
75931;DHT22;64609;47.052;15.462;2023-04-24T03:36:12;14.40;73.50
75931;DHT22;64609;47.052;15.462;2023-04-24T03:38:37;14.40;73.20
75931;DHT22;64609;47.052;15.462;2023-04-24T03:41:03;14.30;73.30
75931;DHT22;64609;47.052;15.462;2023-04-24T03:43:28;14.20;73.50
75931;DHT22;64609;47.052;15.462;2023-04-24T03:45:54;14.20;73.50
75931;DHT22;64609;47.052;15.462;2023-04-24T03:48:20;14.30;73.60
75931;DHT22;64609;47.052;15.462;2023-04-24T03:50:45;14.30;73.50
75931;DHT22;64609;47.052;15.462;2023-04-24T03:53:11;14.30;73.70
75931;DHT22;64609;47.052;15.462;2023-04-24T03:55:37;14.30;73.70
75931;DHT22;64609;47.052;15.462;2023-04-24T03:58:02;14.30;73.80
75931;DHT22;64609;47.052;15.462;2023-04-24T04:00:28;14.40;73.70
75931;DHT22;64609;47.052;15.462;2023-04-24T04:02:53;14.40;73.80
75931;DHT22;64609;47.052;15.462;2023-04-24T04:05:19;14.40;73.80
75931;DHT22;64609;47.052;15.462;2023-04-24T04:07:45;14.40;73.90
75931;DHT22;64609;47.052;15.462;2023-04-24T04:10:10;14.40;73.60
75931;DHT22;64609;47.052;15.462;2023-04-24T04:12:36;14.40;73.60
75931;DHT22;64609;47.052;15.462;2023-04-24T04:15:02;14.30;73.80
75931;DHT22;64609;47.052;15.462;2023-04-24T04:17:28;14.30;73.80
75931;DHT22;64609;47.052;15.462;2023-04-24T04:19:54;14.40;73.80
75931;DHT22;64609;47.052;15.462;2023-04-24T04:22:20;14.40;73.90
75931;DHT22;64609;47.052;15.462;2023-04-24T04:24:46;14.40;73.80
75931;DHT22;64609;47.052;15.462;2023-04-24T04:27:11;14.30;73.70
75931;DHT22;64609;47.052;15.462;2023-04-24T04:29:37;14.30;74.00
75931;DHT22;64609;47.052;15.462;2023-04-24T04:32:04;14.30;74.10
75931;DHT22;64609;47.052;15.462;2023-04-24T04:34:29;14.40;74.20
75931;DHT22;64609;47.052;15.462;2023-04-24T04:36:57;14.40;74.20
75931;DHT22;64609;47.052;15.462;2023-04-24T04:39:25;14.40;74.20
75931;DHT22;64609;47.052;15.462;2023-04-24T04:41:50;14.40;74.20
75931;DHT22;64609;47.052;15.462;2023-04-24T04:44:16;14.40;74.20
75931;DHT22;64609;47.052;15.462;2023-04-24T04:46:41;14.30;73.80
75931;DHT22;64609;47.052;15.462;2023-04-24T04:49:07;14.20;74.00
75931;DHT22;64609;47.052;15.462;2023-04-24T04:51:34;14.20;74.30
75931;DHT22;64609;47.052;15.462;2023-04-24T04:54:00;14.30;74.50
75931;DHT22;64609;47.052;15.462;2023-04-24T04:56:26;14.30;74.40
75931;DHT22;64609;47.052;15.462;2023-04-24T04:58:51;14.40;74.50
75931;DHT22;64609;47.052;15.462;2023-04-24T05:01:17;14.40;74.30
75931;DHT22;64609;47.052;15.462;2023-04-24T05:03:43;14.40;74.30
75931;DHT22;64609;47.052;15.462;2023-04-24T05:06:08;14.40;74.30
75931;DHT22;64609;47.052;15.462;2023-04-24T05:08:34;14.50;74.40
75931;DHT22;64609;47.052;15.462;2023-04-24T05:11:00;14.50;74.60
75931;DHT22;64609;47.052;15.462;2023-04-24T05:13:26;14.60;74.70
75931;DHT22;64609;47.052;15.462;2023-04-24T05:15:51;14.60;74.60
75931;DHT22;64609;47.052;15.462;2023-04-24T05:18:17;14.70;74.80
75931;DHT22;64609;47.052;15.462;2023-04-24T05:20:43;14.70;74.80
75931;DHT22;64609;47.052;15.462;2023-04-24T05:23:09;14.80;74.80
75931;DHT22;64609;47.052;15.462;2023-04-24T05:25:35;14.80;74.80
75931;DHT22;64609;47.052;15.462;2023-04-24T05:28:01;14.90;74.50
75931;DHT22;64609;47.052;15.462;2023-04-24T05:30:27;15.00;74.30
75931;DHT22;64609;47.052;15.462;2023-04-24T05:32:53;15.00;74.30
75931;DHT22;64609;47.052;15.462;2023-04-24T05:35:19;15.00;74.30
75931;DHT22;64609;47.052;15.462;2023-04-24T05:37:44;15.10;74.30
75931;DHT22;64609;47.052;15.462;2023-04-24T05:40:11;15.10;74.30
75931;DHT22;64609;47.052;15.462;2023-04-24T05:42:37;15.10;74.30
75931;DHT22;64609;47.052;15.462;2023-04-24T05:45:03;15.20;74.60
75931;DHT22;64609;47.052;15.462;2023-04-24T05:47:29;15.20;74.40
75931;DHT22;64609;47.052;15.462;2023-04-24T05:49:55;15.30;74.20
75931;DHT22;64609;47.052;15.462;2023-04-24T05:52:21;15.30;74.00
75931;DHT22;64609;47.052;15.462;2023-04-24T05:54:46;15.30;74.00
75931;DHT22;64609;47.052;15.462;2023-04-24T05:57:12;15.40;74.00
75931;DHT22;64609;47.052;15.462;2023-04-24T05:59:38;15.50;73.90
75931;DHT22;64609;47.052;15.462;2023-04-24T06:02:04;15.50;74.30
75931;DHT22;64609;47.052;15.462;2023-04-24T06:04:29;15.50;74.70
75931;DHT22;64609;47.052;15.462;2023-04-24T06:06:55;15.50;75.40
75931;DHT22;64609;47.052;15.462;2023-04-24T06:09:22;15.50;74.30
75931;DHT22;64609;47.052;15.462;2023-04-24T06:11:48;15.60;74.90
75931;DHT22;64609;47.052;15.462;2023-04-24T06:14:14;15.70;74.60
75931;DHT22;64609;47.052;15.462;2023-04-24T06:16:42;15.80;74.10
75931;DHT22;64609;47.052;15.462;2023-04-24T06:19:08;15.80;74.00
75931;DHT22;64609;47.052;15.462;2023-04-24T06:21:33;15.80;73.90
75931;DHT22;64609;47.052;15.462;2023-04-24T06:23:59;15.90;74.20
75931;DHT22;64609;47.052;15.462;2023-04-24T06:26:25;15.90;74.60
75931;DHT22;64609;47.052;15.462;2023-04-24T06:28:52;16.10;74.10
75931;DHT22;64609;47.052;15.462;2023-04-24T06:31:19;16.20;73.70
75931;DHT22;64609;47.052;15.462;2023-04-24T06:33:45;16.30;73.60
75931;DHT22;64609;47.052;15.462;2023-04-24T06:36:12;16.40;73.60
75931;DHT22;64609;47.052;15.462;2023-04-24T06:38:38;16.60;73.00
75931;DHT22;64609;47.052;15.462;2023-04-24T06:41:03;16.80;72.80
75931;DHT22;64609;47.052;15.462;2023-04-24T06:43:31;16.90;72.70
75931;DHT22;64609;47.052;15.462;2023-04-24T06:45:57;16.90;72.20
75931;DHT22;64609;47.052;15.462;2023-04-24T06:48:24;17.00;72.10
75931;DHT22;64609;47.052;15.462;2023-04-24T06:50:50;17.10;71.20
75931;DHT22;64609;47.052;15.462;2023-04-24T06:53:16;17.20;71.10
75931;DHT22;64609;47.052;15.462;2023-04-24T06:55:42;17.20;71.30
75931;DHT22;64609;47.052;15.462;2023-04-24T06:58:09;17.40;71.60
75931;DHT22;64609;47.052;15.462;2023-04-24T07:00:34;17.50;71.30
75931;DHT22;64609;47.052;15.462;2023-04-24T07:03:00;17.50;71.00
75931;DHT22;64609;47.052;15.462;2023-04-24T07:05:26;17.50;70.10
75931;DHT22;64609;47.052;15.462;2023-04-24T07:07:51;17.50;70.50
75931;DHT22;64609;47.052;15.462;2023-04-24T07:10:17;17.50;70.50
75931;DHT22;64609;47.052;15.462;2023-04-24T07:12:43;17.50;70.60
75931;DHT22;64609;47.052;15.462;2023-04-24T07:15:09;17.50;69.60
75931;DHT22;64609;47.052;15.462;2023-04-24T07:17:36;17.40;69.90
75931;DHT22;64609;47.052;15.462;2023-04-24T07:20:04;17.40;70.30
75931;DHT22;64609;47.052;15.462;2023-04-24T07:22:30;17.40;70.30
75931;DHT22;64609;47.052;15.462;2023-04-24T07:24:56;17.30;70.80
75931;DHT22;64609;47.052;15.462;2023-04-24T07:27:22;17.20;70.50
75931;DHT22;64609;47.052;15.462;2023-04-24T07:29:47;17.10;70.60
75931;DHT22;64609;47.052;15.462;2023-04-24T07:32:13;17.10;71.20
75931;DHT22;64609;47.052;15.462;2023-04-24T07:34:39;17.10;71.10
75931;DHT22;64609;47.052;15.462;2023-04-24T07:37:04;17.10;71.10
75931;DHT22;64609;47.052;15.462;2023-04-24T07:39:30;17.10;71.80
75931;DHT22;64609;47.052;15.462;2023-04-24T07:41:56;17.00;72.10
75931;DHT22;64609;47.052;15.462;2023-04-24T07:44:23;17.00;72.10
75931;DHT22;64609;47.052;15.462;2023-04-24T07:46:49;17.00;72.50
75931;DHT22;64609;47.052;15.462;2023-04-24T07:49:15;17.00;73.00
75931;DHT22;64609;47.052;15.462;2023-04-24T07:51:41;17.00;73.00
75931;DHT22;64609;47.052;15.462;2023-04-24T07:54:06;17.00;72.80
75931;DHT22;64609;47.052;15.462;2023-04-24T07:56:33;17.10;72.40
75931;DHT22;64609;47.052;15.462;2023-04-24T07:58:58;17.10;72.20
75931;DHT22;64609;47.052;15.462;2023-04-24T08:01:25;17.10;72.30
75931;DHT22;64609;47.052;15.462;2023-04-24T08:03:51;17.10;72.90
75931;DHT22;64609;47.052;15.462;2023-04-24T08:06:16;17.10;73.50
75931;DHT22;64609;47.052;15.462;2023-04-24T08:08:42;17.00;73.60
75931;DHT22;64609;47.052;15.462;2023-04-24T08:11:08;17.00;74.00
75931;DHT22;64609;47.052;15.462;2023-04-24T08:13:34;17.10;74.00
75931;DHT22;64609;47.052;15.462;2023-04-24T08:15:59;17.10;73.70
75931;DHT22;64609;47.052;15.462;2023-04-24T08:18:25;17.20;73.80
75931;DHT22;64609;47.052;15.462;2023-04-24T08:20:51;17.20;73.60
75931;DHT22;64609;47.052;15.462;2023-04-24T08:23:17;17.20;73.60
75931;DHT22;64609;47.052;15.462;2023-04-24T08:25:42;17.20;73.60
75931;DHT22;64609;47.052;15.462;2023-04-24T08:28:09;17.20;73.60
75931;DHT22;64609;47.052;15.462;2023-04-24T08:30:36;17.10;73.30
75931;DHT22;64609;47.052;15.462;2023-04-24T08:33:02;17.00;73.20
75931;DHT22;64609;47.052;15.462;2023-04-24T08:35:28;17.00;73.30
75931;DHT22;64609;47.052;15.462;2023-04-24T08:37:53;17.00;73.60
75931;DHT22;64609;47.052;15.462;2023-04-24T08:40:25;17.00;73.70
75931;DHT22;64609;47.052;15.462;2023-04-24T08:42:54;17.10;73.70
75931;DHT22;64609;47.052;15.462;2023-04-24T08:45:21;17.00;73.80
75931;DHT22;64609;47.052;15.462;2023-04-24T08:47:47;17.10;73.80
75931;DHT22;64609;47.052;15.462;2023-04-24T08:50:14;17.10;73.80
75931;DHT22;64609;47.052;15.462;2023-04-24T08:52:42;17.10;73.60
75931;DHT22;64609;47.052;15.462;2023-04-24T08:55:07;17.00;73.60
75931;DHT22;64609;47.052;15.462;2023-04-24T08:57:33;17.00;73.70
75931;DHT22;64609;47.052;15.462;2023-04-24T09:00:01;17.00;73.90
75931;DHT22;64609;47.052;15.462;2023-04-24T09:02:27;17.00;74.10
75931;DHT22;64609;47.052;15.462;2023-04-24T09:04:56;17.00;73.90
75931;DHT22;64609;47.052;15.462;2023-04-24T09:07:24;17.00;74.00
75931;DHT22;64609;47.052;15.462;2023-04-24T09:09:51;17.00;74.20
75931;DHT22;64609;47.052;15.462;2023-04-24T09:12:17;17.00;74.20
75931;DHT22;64609;47.052;15.462;2023-04-24T09:14:44;17.10;74.40
75931;DHT22;64609;47.052;15.462;2023-04-24T09:17:11;17.10;74.80
75931;DHT22;64609;47.052;15.462;2023-04-24T09:19:37;17.00;75.90
75931;DHT22;64609;47.052;15.462;2023-04-24T09:22:07;17.10;75.30
75931;DHT22;64609;47.052;15.462;2023-04-24T09:24:34;17.10;75.40
75931;DHT22;64609;47.052;15.462;2023-04-24T09:27:01;17.20;74.50
75931;DHT22;64609;47.052;15.462;2023-04-24T09:29:27;17.20;74.30
75931;DHT22;64609;47.052;15.462;2023-04-24T09:31:53;17.20;73.60
75931;DHT22;64609;47.052;15.462;2023-04-24T09:34:24;17.20;73.40
75931;DHT22;64609;47.052;15.462;2023-04-24T09:36:50;17.20;73.20
75931;DHT22;64609;47.052;15.462;2023-04-24T09:39:16;17.30;73.10
75931;DHT22;64609;47.052;15.462;2023-04-24T09:41:53;17.30;73.00
75931;DHT22;64609;47.052;15.462;2023-04-24T09:44:20;17.30;72.60
75931;DHT22;64609;47.052;15.462;2023-04-24T09:46:53;17.40;72.70
75931;DHT22;64609;47.052;15.462;2023-04-24T09:49:30;17.40;72.90
75931;DHT22;64609;47.052;15.462;2023-04-24T09:52:09;17.40;72.70
75931;DHT22;64609;47.052;15.462;2023-04-24T09:54:35;17.50;72.20
75931;DHT22;64609;47.052;15.462;2023-04-24T09:57:04;17.50;72.20
75931;DHT22;64609;47.052;15.462;2023-04-24T09:59:30;17.60;72.10
75931;DHT22;64609;47.052;15.462;2023-04-24T10:01:56;17.60;71.60
75931;DHT22;64609;47.052;15.462;2023-04-24T10:04:27;17.70;71.20
75931;DHT22;64609;47.052;15.462;2023-04-24T10:06:55;17.80;71.20
75931;DHT22;64609;47.052;15.462;2023-04-24T10:09:23;17.80;71.40
75931;DHT22;64609;47.052;15.462;2023-04-24T10:11:51;17.90;71.40
75931;DHT22;64609;47.052;15.462;2023-04-24T10:14:22;18.00;71.30
75931;DHT22;64609;47.052;15.462;2023-04-24T10:16:49;18.10;70.40
75931;DHT22;64609;47.052;15.462;2023-04-24T10:19:16;18.30;70.40
75931;DHT22;64609;47.052;15.462;2023-04-24T10:21:44;18.40;69.90
75931;DHT22;64609;47.052;15.462;2023-04-24T10:24:21;18.50;68.70
75931;DHT22;64609;47.052;15.462;2023-04-24T10:26:47;18.60;69.10
75931;DHT22;64609;47.052;15.462;2023-04-24T10:29:16;18.70;68.80
75931;DHT22;64609;47.052;15.462;2023-04-24T10:31:42;18.70;68.30
75931;DHT22;64609;47.052;15.462;2023-04-24T10:34:11;18.80;68.10
75931;DHT22;64609;47.052;15.462;2023-04-24T10:36:40;18.80;68.00
75931;DHT22;64609;47.052;15.462;2023-04-24T10:39:10;18.90;68.00
75931;DHT22;64609;47.052;15.462;2023-04-24T10:41:39;18.90;68.80
75931;DHT22;64609;47.052;15.462;2023-04-24T10:44:09;18.90;68.50
75931;DHT22;64609;47.052;15.462;2023-04-24T10:46:36;18.90;68.00
75931;DHT22;64609;47.052;15.462;2023-04-24T10:49:06;19.00;67.40
75931;DHT22;64609;47.052;15.462;2023-04-24T10:54:36;19.10;66.50
75931;DHT22;64609;47.052;15.462;2023-04-24T10:59:50;19.30;66.80
75931;DHT22;64609;47.052;15.462;2023-04-24T11:02:18;19.40;66.70
75931;DHT22;64609;47.052;15.462;2023-04-24T11:05:03;19.50;67.00
75931;DHT22;64609;47.052;15.462;2023-04-24T11:07:29;19.70;66.30
75931;DHT22;64609;47.052;15.462;2023-04-24T11:10:01;19.70;66.00
75931;DHT22;64609;47.052;15.462;2023-04-24T11:12:26;19.70;65.20
75931;DHT22;64609;47.052;15.462;2023-04-24T11:17:47;19.70;64.30
75931;DHT22;64609;47.052;15.462;2023-04-24T11:20:17;19.70;64.20
75931;DHT22;64609;47.052;15.462;2023-04-24T11:22:43;19.80;63.90
75931;DHT22;64609;47.052;15.462;2023-04-24T11:25:09;19.80;63.60
75931;DHT22;64609;47.052;15.462;2023-04-24T11:27:44;19.80;63.80
75931;DHT22;64609;47.052;15.462;2023-04-24T11:30:11;19.80;64.50
75931;DHT22;64609;47.052;15.462;2023-04-24T11:32:40;19.70;64.40
75931;DHT22;64609;47.052;15.462;2023-04-24T11:37:47;19.60;63.20
75931;DHT22;64609;47.052;15.462;2023-04-24T11:40:18;19.50;62.00
75931;DHT22;64609;47.052;15.462;2023-04-24T11:42:49;19.50;61.90
75931;DHT22;64609;47.052;15.462;2023-04-24T11:47:46;19.40;61.30
75931;DHT22;64609;47.052;15.462;2023-04-24T11:50:14;19.50;61.50
75931;DHT22;64609;47.052;15.462;2023-04-24T11:52:41;19.50;62.40
75931;DHT22;64609;47.052;15.462;2023-04-24T11:55:27;19.50;62.60
75931;DHT22;64609;47.052;15.462;2023-04-24T11:57:55;19.50;61.00
75931;DHT22;64609;47.052;15.462;2023-04-24T12:00:27;19.40;61.60
75931;DHT22;64609;47.052;15.462;2023-04-24T12:03:06;19.40;60.80
75931;DHT22;64609;47.052;15.462;2023-04-24T12:05:32;19.30;59.20
75931;DHT22;64609;47.052;15.462;2023-04-24T12:07:59;19.30;60.50
75931;DHT22;64609;47.052;15.462;2023-04-24T12:10:28;19.30;60.50
75931;DHT22;64609;47.052;15.462;2023-04-24T12:12:56;19.30;60.60
75931;DHT22;64609;47.052;15.462;2023-04-24T12:15:22;19.30;60.10
75931;DHT22;64609;47.052;15.462;2023-04-24T12:17:50;19.30;60.70
75931;DHT22;64609;47.052;15.462;2023-04-24T12:20:16;19.30;61.40
75931;DHT22;64609;47.052;15.462;2023-04-24T12:25:18;19.10;61.50
75931;DHT22;64609;47.052;15.462;2023-04-24T12:30:22;19.00;61.90
75931;DHT22;64609;47.052;15.462;2023-04-24T12:32:51;19.10;62.40
75931;DHT22;64609;47.052;15.462;2023-04-24T12:35:21;19.20;63.00
75931;DHT22;64609;47.052;15.462;2023-04-24T12:37:48;19.20;60.80
75931;DHT22;64609;47.052;15.462;2023-04-24T12:40:14;19.10;60.00
75931;DHT22;64609;47.052;15.462;2023-04-24T12:42:45;19.10;59.70
75931;DHT22;64609;47.052;15.462;2023-04-24T12:45:12;19.20;58.90
75931;DHT22;64609;47.052;15.462;2023-04-24T12:47:38;19.30;59.20
75931;DHT22;64609;47.052;15.462;2023-04-24T12:50:06;19.50;60.00
75931;DHT22;64609;47.052;15.462;2023-04-24T12:52:31;19.70;59.20
75931;DHT22;64609;47.052;15.462;2023-04-24T12:54:59;19.90;59.50
75931;DHT22;64609;47.052;15.462;2023-04-24T12:57:27;20.00;60.00
75931;DHT22;64609;47.052;15.462;2023-04-24T12:59:57;20.10;58.30
75931;DHT22;64609;47.052;15.462;2023-04-24T13:02:28;20.30;58.00
75931;DHT22;64609;47.052;15.462;2023-04-24T13:04:55;20.20;55.40
75931;DHT22;64609;47.052;15.462;2023-04-24T13:07:20;20.20;56.10
75931;DHT22;64609;47.052;15.462;2023-04-24T13:09:48;20.10;56.40
75931;DHT22;64609;47.052;15.462;2023-04-24T13:12:14;20.20;56.90
75931;DHT22;64609;47.052;15.462;2023-04-24T13:14:40;20.30;55.40
75931;DHT22;64609;47.052;15.462;2023-04-24T13:17:06;20.30;54.90
75931;DHT22;64609;47.052;15.462;2023-04-24T13:19:40;20.20;54.50
75931;DHT22;64609;47.052;15.462;2023-04-24T13:22:06;20.10;54.10
75931;DHT22;64609;47.052;15.462;2023-04-24T13:24:33;20.10;53.80
75931;DHT22;64609;47.052;15.462;2023-04-24T13:26:59;20.10;54.30
75931;DHT22;64609;47.052;15.462;2023-04-24T13:29:25;20.10;54.10
75931;DHT22;64609;47.052;15.462;2023-04-24T13:31:51;20.10;55.10
75931;DHT22;64609;47.052;15.462;2023-04-24T13:34:24;20.00;55.80
75931;DHT22;64609;47.052;15.462;2023-04-24T13:36:55;19.90;56.30
75931;DHT22;64609;47.052;15.462;2023-04-24T13:39:22;19.90;57.30
75931;DHT22;64609;47.052;15.462;2023-04-24T13:41:48;19.80;57.10
75931;DHT22;64609;47.052;15.462;2023-04-24T13:44:14;19.70;58.10
75931;DHT22;64609;47.052;15.462;2023-04-24T13:46:41;19.70;58.00
75931;DHT22;64609;47.052;15.462;2023-04-24T13:49:07;19.70;57.80
75931;DHT22;64609;47.052;15.462;2023-04-24T13:51:33;19.70;58.20
75931;DHT22;64609;47.052;15.462;2023-04-24T13:53:58;19.70;58.00
75931;DHT22;64609;47.052;15.462;2023-04-24T13:56:25;19.50;58.20
75931;DHT22;64609;47.052;15.462;2023-04-24T13:58:51;19.60;58.90
75931;DHT22;64609;47.052;15.462;2023-04-24T14:01:17;19.60;58.30
75931;DHT22;64609;47.052;15.462;2023-04-24T14:03:42;19.60;57.60
75931;DHT22;64609;47.052;15.462;2023-04-24T14:06:11;19.60;57.90
75931;DHT22;64609;47.052;15.462;2023-04-24T14:08:37;19.60;58.10
75931;DHT22;64609;47.052;15.462;2023-04-24T14:11:02;19.60;58.00
75931;DHT22;64609;47.052;15.462;2023-04-24T14:13:28;19.40;57.60
75931;DHT22;64609;47.052;15.462;2023-04-24T14:15:54;19.20;58.40
75931;DHT22;64609;47.052;15.462;2023-04-24T14:18:20;19.10;59.60
75931;DHT22;64609;47.052;15.462;2023-04-24T14:20:45;19.00;59.30
75931;DHT22;64609;47.052;15.462;2023-04-24T14:23:11;18.90;60.00
75931;DHT22;64609;47.052;15.462;2023-04-24T14:25:37;19.00;60.30
75931;DHT22;64609;47.052;15.462;2023-04-24T14:28:03;19.10;61.10
75931;DHT22;64609;47.052;15.462;2023-04-24T14:30:28;19.10;60.40
75931;DHT22;64609;47.052;15.462;2023-04-24T14:32:54;19.20;60.60
75931;DHT22;64609;47.052;15.462;2023-04-24T14:35:20;19.20;60.20
75931;DHT22;64609;47.052;15.462;2023-04-24T14:37:45;19.20;60.00
75931;DHT22;64609;47.052;15.462;2023-04-24T14:40:11;19.10;60.40
75931;DHT22;64609;47.052;15.462;2023-04-24T14:42:37;19.10;61.00
75931;DHT22;64609;47.052;15.462;2023-04-24T14:45:03;19.10;61.30
75931;DHT22;64609;47.052;15.462;2023-04-24T14:47:28;19.10;61.10
75931;DHT22;64609;47.052;15.462;2023-04-24T14:49:54;19.10;61.20
75931;DHT22;64609;47.052;15.462;2023-04-24T14:52:20;19.10;60.80
75931;DHT22;64609;47.052;15.462;2023-04-24T14:54:46;19.10;60.80
75931;DHT22;64609;47.052;15.462;2023-04-24T14:57:12;19.00;60.80
75931;DHT22;64609;47.052;15.462;2023-04-24T14:59:37;19.00;60.90
75931;DHT22;64609;47.052;15.462;2023-04-24T15:02:03;18.90;60.80
75931;DHT22;64609;47.052;15.462;2023-04-24T15:04:29;18.90;60.80
75931;DHT22;64609;47.052;15.462;2023-04-24T15:06:56;18.80;60.80
75931;DHT22;64609;47.052;15.462;2023-04-24T15:09:23;18.80;60.90
75931;DHT22;64609;47.052;15.462;2023-04-24T15:11:50;18.80;61.10
75931;DHT22;64609;47.052;15.462;2023-04-24T15:14:17;18.70;61.30
75931;DHT22;64609;47.052;15.462;2023-04-24T15:16:43;18.60;61.70
75931;DHT22;64609;47.052;15.462;2023-04-24T15:19:08;18.60;62.40
75931;DHT22;64609;47.052;15.462;2023-04-24T15:21:36;18.50;62.50
75931;DHT22;64609;47.052;15.462;2023-04-24T15:24:01;18.60;62.90
75931;DHT22;64609;47.052;15.462;2023-04-24T15:26:27;18.60;63.20
75931;DHT22;64609;47.052;15.462;2023-04-24T15:28:53;18.40;63.20
75931;DHT22;64609;47.052;15.462;2023-04-24T15:31:19;18.40;63.80